METAR Data
IDs: Format: Raw Decoded Include TAF

Data at: 2200 UTC 22 Sep 2020

METAR for:KOKV (Winchester Rgnl, VA, US)
Text:KOKV 222155Z AUTO 31006KT 10SM CLR 20/07 A3003 RMK AO2
Temperature: 20.0°C ( 68°F)
Dewpoint: 7.0°C ( 45°F) [RH = 43%]
Pressure (altimeter):30.03 inches Hg (1017.0 mb)
Winds:from the NW (310 degrees) at 7 MPH (6 knots; 3.1 m/s)
Visibility:10 or more sm (16+ km)
Ceiling:at least 12,000 feet AGL
Clouds:sky clear below 12,000 feet AGL
QC Flag:automated observation with no human augmentation